createdAt,value
2019-01-05T00:00:59.005Z,12.65
2019-01-05T00:02:18.812Z,9.83
2019-01-05T00:03:52.603Z,13.20
2019-01-05T00:05:21.293Z,14.47
2019-01-05T00:07:02.349Z,11.65
2019-01-05T00:08:39.691Z,10.10
2019-01-05T00:10:04.268Z,12.07
2019-01-05T00:11:29.123Z,15.33
2019-01-05T00:12:53.345Z,11.30
2019-01-05T00:14:18.414Z,9.18
2019-01-05T00:15:46.214Z,6.65
2019-01-05T00:17:20.578Z,12.35
2019-01-05T00:18:50.103Z,9.30
2019-01-05T00:20:15.353Z,16.20
2019-01-05T00:22:00.571Z,11.25
2019-01-05T00:23:32.077Z,8.13
2019-01-05T00:24:55.728Z,10.98
2019-01-05T00:26:20.207Z,10.47
2019-01-05T00:27:44.733Z,13.20
2019-01-05T00:29:05.961Z,7.47
2019-01-05T00:30:34.300Z,9.83
2019-01-05T00:32:37.464Z,11.18
2019-01-05T00:34:15.175Z,10.80
2019-01-05T00:36:11.112Z,10.43
2019-01-05T00:37:40.375Z,8.68
2019-01-05T00:39:25.171Z,9.60
2019-01-05T00:40:57.149Z,7.10
2019-01-05T00:42:42.780Z,13.18
2019-01-05T00:44:08.640Z,11.45
2019-01-05T00:45:52.470Z,15.30
2019-01-05T00:47:20.771Z,10.23
2019-01-05T00:48:50.663Z,5.92
2019-01-05T00:50:17.231Z,8.58
2019-01-05T00:51:46.395Z,13.62
2019-01-05T00:53:11.607Z,7.95
2019-01-05T00:54:37.630Z,8.48
2019-01-05T00:56:03.878Z,9.23
2019-01-05T00:57:32.086Z,7.97
2019-01-05T00:59:04.084Z,7.75
2019-01-05T01:00:28.688Z,8.68
2019-01-05T01:01:56.578Z,7.37
2019-01-05T01:03:34.740Z,9.93
2019-01-05T01:04:58.809Z,10.18
2019-01-05T01:06:23.084Z,7.00
2019-01-05T01:07:47.867Z,10.10
2019-01-05T01:09:08.638Z,14.10
2019-01-05T01:10:37.357Z,15.85
2019-01-05T01:12:12.239Z,13.55
2019-01-05T01:13:47.034Z,12.20
2019-01-05T01:15:12.296Z,14.25
2019-01-05T01:16:41.859Z,9.28
2019-01-05T01:18:06.255Z,9.87
2019-01-05T01:19:32.846Z,10.53
2019-01-05T01:20:57.700Z,9.63
2019-01-05T01:22:24.361Z,8.40
2019-01-05T01:23:49.235Z,10.10
2019-01-05T01:25:33.468Z,12.13
2019-01-05T01:26:59.823Z,9.63
2019-01-05T01:28:27.066Z,9.78
2019-01-05T01:30:08.464Z,15.15
2019-01-05T01:31:29.052Z,10.03
2019-01-05T01:33:07.114Z,11.23
2019-01-05T01:34:44.793Z,12.60
2019-01-05T01:36:09.956Z,9.35
2019-01-05T01:37:34.610Z,13.37
2019-01-05T01:39:40.515Z,9.78
2019-01-05T01:41:09.603Z,10.95
2019-01-05T01:42:44.329Z,7.53
2019-01-05T01:44:11.420Z,12.80
2019-01-05T01:45:40.399Z,6.20
2019-01-05T01:47:06.782Z,11.70
2019-01-05T01:48:33.157Z,9.25
2019-01-05T01:50:00.270Z,8.60
2019-01-05T01:51:42.879Z,7.23
2019-01-05T01:53:09.439Z,10.37
2019-01-05T01:54:35.885Z,10.13
2019-01-05T01:56:07.866Z,10.07
2019-01-05T01:57:35.287Z,11.68
2019-01-05T01:59:10.277Z,7.73
2019-01-05T02:00:27.778Z,10.82
2019-01-05T02:02:00.829Z,8.33
2019-01-05T02:03:38.855Z,8.03
2019-01-05T02:05:11.585Z,6.65
2019-01-05T02:06:39.802Z,10.63
2019-01-05T02:08:13.709Z,9.10
2019-01-05T02:09:40.468Z,12.33
2019-01-05T02:11:23.616Z,8.63
2019-01-05T02:12:51.622Z,7.30
2019-01-05T02:14:19.637Z,7.23
2019-01-05T02:15:54.245Z,7.50
2019-01-05T02:17:47.615Z,11.63
2019-01-05T02:19:44.267Z,16.03
2019-01-05T02:21:58.707Z,12.33
2019-01-05T02:24:35.665Z,20.83
2019-01-05T02:26:37.076Z,15.35
2019-01-05T02:28:55.894Z,11.08
2019-01-05T02:31:51.170Z,13.63
2019-01-05T02:34:34.921Z,14.68
2019-01-05T02:37:16.351Z,18.57
2019-01-05T02:39:52.714Z,15.33
2019-01-05T02:42:31.814Z,19.37
2019-01-05T02:44:47.561Z,16.70
2019-01-05T02:47:25.535Z,19.33
2019-01-05T02:49:44.432Z,19.43
2019-01-05T02:52:04.217Z,26.23
2019-01-05T02:54:51.338Z,25.62
2019-01-05T02:57:06.137Z,18.42
2019-01-05T02:59:34.355Z,34.00
2019-01-05T03:02:07.805Z,23.62
2019-01-05T03:04:48.360Z,31.27
2019-01-05T03:07:15.504Z,36.27
2019-01-05T03:09:46.187Z,24.87
2019-01-05T03:12:20.016Z,32.63
2019-01-05T03:15:04.466Z,22.07
2019-01-05T03:17:34.712Z,24.98
2019-01-05T03:19:31.410Z,26.90
2019-01-05T03:22:02.149Z,24.27
2019-01-05T03:24:36.957Z,22.03
2019-01-05T03:27:12.062Z,24.67
2019-01-05T03:29:32.421Z,25.55
2019-01-05T03:32:08.917Z,24.15
2019-01-05T03:34:24.776Z,25.65
2019-01-05T03:36:41.100Z,22.22
2019-01-05T03:39:10.108Z,15.70
2019-01-05T03:41:31.629Z,21.80
2019-01-05T03:44:01.058Z,16.67
2019-01-05T03:46:31.808Z,41.65
2019-01-05T03:48:41.804Z,19.60
2019-01-05T03:51:17.211Z,19.67
2019-01-05T03:53:35.454Z,24.27
2019-01-05T03:56:02.092Z,22.93
2019-01-05T03:58:16.476Z,19.70
2019-01-05T04:00:20.836Z,29.50
2019-01-05T04:02:58.980Z,30.33
2019-01-05T04:05:17.150Z,22.83
2019-01-05T04:08:02.959Z,18.15
2019-01-05T04:10:41.315Z,26.23
2019-01-05T04:13:00.434Z,22.45
2019-01-05T04:15:37.135Z,22.00
2019-01-05T04:17:56.536Z,22.40
2019-01-05T04:20:31.305Z,29.87
2019-01-05T04:23:07.682Z,29.87
2019-01-05T04:25:18.655Z,22.20
2019-01-05T04:27:22.842Z,21.43
2019-01-05T04:29:59.373Z,21.50
2019-01-05T04:32:30.494Z,27.30
2019-01-05T04:34:56.308Z,23.30
2019-01-05T04:37:18.983Z,34.93
2019-01-05T04:40:09.658Z,23.02
2019-01-05T04:42:33.103Z,16.27
2019-01-05T04:44:43.726Z,27.98
2019-01-05T04:47:17.489Z,21.70
2019-01-05T04:49:59.609Z,29.37
2019-01-05T04:52:10.573Z,24.30
2019-01-05T04:54:44.307Z,23.43
2019-01-05T04:57:25.782Z,28.60
2019-01-05T04:59:50.927Z,23.80
2019-01-05T05:02:10.972Z,19.42
2019-01-05T05:04:19.147Z,23.92
2019-01-05T05:06:29.816Z,22.53
2019-01-05T05:08:37.421Z,21.75
2019-01-05T05:11:13.217Z,31.80
2019-01-05T05:13:45.807Z,17.53
2019-01-05T05:16:04.073Z,26.35
2019-01-05T05:18:29.211Z,18.98
2019-01-05T05:20:52.323Z,18.40
2019-01-05T05:23:27.999Z,27.40
2019-01-05T05:26:13.420Z,14.20
2019-01-05T05:29:15.611Z,19.80
2019-01-05T05:31:42.627Z,21.30
2019-01-05T05:34:03.510Z,20.48
2019-01-05T05:36:29.498Z,22.07
2019-01-05T05:38:58.110Z,24.27
2019-01-05T05:41:46.251Z,34.13
2019-01-05T05:43:59.917Z,27.37
2019-01-05T05:46:25.518Z,21.85
2019-01-05T05:48:57.072Z,12.60
2019-01-05T05:51:32.710Z,18.65
2019-01-05T05:54:24.457Z,20.40
2019-01-05T05:57:11.361Z,20.17
2019-01-05T05:59:47.627Z,21.30
2019-01-05T06:02:35.837Z,19.35
2019-01-05T06:05:11.135Z,14.73
2019-01-05T06:07:45.856Z,24.63
2019-01-05T06:10:07.987Z,16.90
2019-01-05T06:12:18.479Z,15.60
2019-01-05T06:14:38.695Z,24.07
2019-01-05T06:16:44.829Z,19.23
2019-01-05T06:19:10.072Z,19.13
2019-01-05T06:21:37.743Z,15.23
2019-01-05T06:24:10.542Z,16.67
2019-01-05T06:26:42.287Z,14.10
2019-01-05T06:29:11.668Z,19.47
2019-01-05T06:31:42.749Z,18.53
2019-01-05T06:34:15.701Z,20.00
2019-01-05T06:36:59.017Z,10.28
2019-01-05T06:39:31.596Z,15.63
2019-01-05T06:42:07.554Z,12.47
2019-01-05T06:44:48.601Z,14.07
2019-01-05T06:47:26.249Z,8.70
2019-01-05T06:49:58.952Z,8.45
2019-01-05T06:52:46.230Z,12.95
2019-01-05T06:55:19.577Z,9.50
2019-01-05T06:58:24.478Z,15.23
2019-01-05T07:00:59.904Z,24.77
2019-01-05T07:03:30.913Z,9.23
2019-01-05T07:05:54.382Z,16.30
2019-01-05T07:08:31.101Z,20.37
2019-01-05T07:11:20.855Z,11.20
2019-01-05T07:14:13.945Z,14.25
2019-01-05T07:16:46.637Z,16.63
2019-01-05T07:19:18.755Z,17.40
2019-01-05T07:21:42.574Z,15.98
2019-01-05T07:24:33.816Z,13.13
2019-01-05T07:27:10.135Z,25.08
2019-01-05T07:29:38.299Z,19.97
2019-01-05T07:32:11.523Z,18.57
2019-01-05T07:34:35.401Z,26.17
2019-01-05T07:37:10.924Z,29.07
2019-01-05T07:39:42.427Z,32.63
2019-01-05T07:42:42.137Z,20.72
2019-01-05T07:45:15.462Z,30.67
2019-01-05T07:47:51.959Z,39.67
2019-01-05T07:50:36.695Z,23.22
2019-01-05T07:53:20.846Z,21.37
2019-01-05T07:55:39.769Z,33.15
2019-01-05T07:58:13.512Z,29.65
2019-01-05T08:00:33.727Z,24.25
2019-01-05T08:03:12.215Z,26.93
2019-01-05T08:05:59.949Z,31.00
2019-01-05T08:08:50.838Z,32.05
2019-01-05T08:11:03.115Z,23.00
2019-01-05T08:13:32.543Z,26.55
2019-01-05T08:15:49.974Z,17.00
2019-01-05T08:18:15.658Z,33.83
2019-01-05T08:20:50.340Z,18.65
2019-01-05T08:23:19.316Z,17.13
2019-01-05T08:25:47.554Z,21.52
2019-01-05T08:28:43.606Z,21.30
2019-01-05T08:31:08.985Z,20.27
2019-01-05T08:33:49.471Z,23.62
2019-01-05T08:36:08.451Z,17.27
2019-01-05T08:38:32.801Z,17.32
2019-01-05T08:40:59.448Z,26.52
2019-01-05T08:43:31.246Z,14.80
2019-01-05T08:45:59.864Z,23.52
2019-01-05T08:48:18.675Z,16.85
2019-01-05T08:50:42.024Z,18.82
2019-01-05T08:53:14.581Z,18.75
2019-01-05T08:55:33.452Z,22.13
2019-01-05T08:58:25.596Z,25.70
2019-01-05T09:00:44.117Z,18.48
2019-01-05T09:03:13.089Z,15.18
2019-01-05T09:05:41.288Z,23.25
2019-01-05T09:08:09.650Z,15.03
2019-01-05T09:10:40.830Z,16.50
2019-01-05T09:13:19.093Z,22.70
2019-01-05T09:15:52.240Z,11.53
2019-01-05T09:18:33.946Z,20.20
2019-01-05T09:20:50.652Z,19.33
2019-01-05T09:23:36.459Z,17.67
2019-01-05T09:26:09.438Z,24.98
2019-01-05T09:28:26.668Z,13.00
2019-01-05T09:31:06.750Z,21.73
2019-01-05T09:33:20.888Z,12.98
2019-01-05T09:35:41.645Z,17.90
2019-01-05T09:38:07.656Z,10.45
2019-01-05T09:40:49.986Z,22.50
2019-01-05T09:43:20.843Z,26.00
2019-01-05T09:46:01.826Z,18.17
2019-01-05T09:48:17.818Z,11.57
2019-01-05T09:50:58.103Z,18.47
2019-01-05T09:53:13.796Z,18.98
2019-01-05T09:55:31.064Z,23.25
2019-01-05T09:58:01.362Z,17.45
2019-01-05T10:00:48.492Z,21.70
2019-01-05T10:03:08.939Z,21.33
2019-01-05T10:05:30.877Z,21.20
2019-01-05T10:07:45.970Z,8.27
2019-01-05T10:10:36.503Z,21.83
2019-01-05T10:13:14.724Z,10.98
2019-01-05T10:15:38.145Z,20.82
2019-01-05T10:18:02.548Z,25.97
2019-01-05T10:20:39.516Z,15.90
2019-01-05T10:23:19.457Z,15.70
2019-01-05T10:25:57.330Z,31.87
2019-01-05T10:27:56.252Z,25.03
2019-01-05T10:30:19.585Z,16.23
2019-01-05T10:32:47.158Z,14.73
2019-01-05T10:35:08.947Z,9.63
2019-01-05T10:38:04.127Z,15.30
2019-01-05T10:40:54.206Z,17.10
2019-01-05T10:43:24.529Z,14.37
2019-01-05T10:45:47.157Z,18.15
2019-01-05T10:48:00.126Z,25.30
2019-01-05T10:50:45.568Z,17.07
2019-01-05T10:53:13.443Z,9.10
2019-01-05T10:55:33.058Z,17.77
2019-01-05T10:58:10.789Z,15.40
2019-01-05T11:01:05.241Z,13.90
2019-01-05T11:03:24.455Z,24.10
2019-01-05T11:05:50.013Z,26.50
2019-01-05T11:07:57.969Z,22.63
2019-01-05T11:10:24.274Z,19.03
2019-01-05T11:12:54.235Z,27.73
2019-01-05T11:15:23.557Z,21.37
2019-01-05T11:18:01.550Z,20.23
2019-01-05T11:20:17.599Z,24.67
2019-01-05T11:22:35.078Z,18.83
2019-01-05T11:25:12.523Z,18.85
2019-01-05T11:27:33.695Z,18.80
2019-01-05T11:30:09.371Z,19.00
2019-01-05T11:32:23.399Z,19.67
2019-01-05T11:34:46.688Z,12.93
2019-01-05T11:37:17.345Z,13.20
2019-01-05T11:39:48.603Z,22.40
2019-01-05T11:42:23.191Z,13.90
2019-01-05T11:44:32.692Z,17.60
2019-01-05T11:47:06.486Z,11.00
2019-01-05T11:49:43.013Z,17.67
2019-01-05T11:52:01.255Z,23.23
2019-01-05T11:54:16.157Z,15.43
2019-01-05T11:56:39.648Z,16.73
2019-01-05T11:58:51.793Z,14.75
2019-01-05T12:01:38.139Z,23.00
2019-01-05T12:03:58.772Z,21.00
2019-01-05T12:06:41.087Z,18.42
2019-01-05T12:09:08.975Z,13.17
2019-01-05T12:11:36.248Z,17.70
2019-01-05T12:13:57.404Z,24.13
2019-01-05T12:16:21.389Z,25.25
2019-01-05T12:18:49.313Z,10.23
2019-01-05T12:21:02.969Z,19.87
2019-01-05T12:23:44.865Z,9.10
2019-01-05T12:26:28.709Z,23.00
2019-01-05T12:28:58.877Z,22.70
2019-01-05T12:31:45.229Z,12.30
2019-01-05T12:34:23.292Z,11.23
2019-01-05T12:36:55.559Z,12.45
2019-01-05T12:39:51.943Z,8.13
2019-01-05T12:42:14.372Z,22.40
2019-01-05T12:44:27.982Z,13.90
2019-01-05T12:47:23.712Z,17.40
2019-01-05T12:49:34.302Z,14.13
2019-01-05T12:52:22.814Z,15.00
2019-01-05T12:54:58.192Z,10.83
2019-01-05T12:57:19.007Z,16.10
2019-01-05T12:59:33.675Z,20.00
2019-01-05T13:02:15.864Z,14.03
2019-01-05T13:04:45.388Z,16.20
2019-01-05T13:07:40.075Z,12.30
2019-01-05T13:09:52.516Z,15.60
2019-01-05T13:12:05.983Z,14.47
2019-01-05T13:14:58.543Z,15.03
2019-01-05T13:17:11.442Z,19.43
2019-01-05T13:19:47.018Z,11.70
2019-01-05T13:22:38.456Z,14.80
2019-01-05T13:25:36.131Z,11.20
2019-01-05T13:28:09.696Z,21.13
2019-01-05T13:31:19.037Z,13.50
2019-01-05T13:34:00.391Z,11.10
2019-01-05T13:36:14.784Z,13.70
2019-01-05T13:38:40.625Z,21.10
2019-01-05T13:41:26.277Z,21.30
2019-01-05T13:43:34.144Z,17.47
2019-01-05T13:46:36.074Z,17.20
2019-01-05T13:49:04.184Z,21.70
2019-01-05T13:51:41.122Z,13.33
2019-01-05T13:53:26.319Z,8.93
2019-01-05T13:54:53.042Z,13.37
2019-01-05T13:57:01.287Z,16.65
2019-01-05T13:58:20.815Z,9.23
2019-01-05T13:59:49.687Z,14.37
2019-01-05T14:01:30.622Z,13.10
2019-01-05T14:03:08.515Z,11.15
2019-01-05T14:04:28.838Z,15.70
2019-01-05T14:05:53.643Z,6.17
2019-01-05T14:07:18.512Z,13.10
2019-01-05T14:08:51.096Z,16.07
2019-01-05T14:10:29.439Z,17.20
2019-01-05T14:12:01.874Z,9.73
2019-01-05T14:13:27.006Z,11.67
2019-01-05T14:15:04.271Z,10.43
2019-01-05T14:16:42.067Z,13.23
2019-01-05T14:18:20.008Z,13.33
2019-01-05T14:19:45.613Z,18.43
2019-01-05T14:21:23.751Z,7.20
2019-01-05T14:22:48.131Z,12.20
2019-01-05T14:24:19.615Z,15.00
2019-01-05T14:25:45.488Z,9.50
2019-01-05T14:27:14.561Z,11.20
2019-01-05T14:28:39.053Z,11.63
2019-01-05T14:30:03.496Z,15.70
2019-01-05T14:31:35.603Z,10.53
2019-01-05T14:33:00.280Z,9.80
2019-01-05T14:34:25.409Z,9.08
2019-01-05T14:36:03.102Z,11.70
2019-01-05T14:37:32.482Z,10.37
2019-01-05T14:39:10.424Z,18.53
2019-01-05T14:40:29.940Z,8.30
2019-01-05T14:41:51.600Z,6.50
2019-01-05T14:43:16.051Z,7.87
2019-01-05T14:44:37.919Z,7.43
2019-01-05T14:46:00.195Z,11.60
2019-01-05T14:47:24.470Z,10.80
2019-01-05T14:48:48.938Z,12.20
2019-01-05T14:50:32.921Z,10.90
2019-01-05T14:52:04.515Z,11.20
2019-01-05T14:53:36.552Z,13.83
2019-01-05T14:55:05.866Z,13.10
2019-01-05T14:56:50.713Z,8.10
2019-01-05T14:58:14.741Z,8.90
2019-01-05T14:59:49.676Z,7.47
2019-01-05T15:01:33.518Z,10.30
2019-01-05T15:03:11.186Z,11.83
2019-01-05T15:04:35.398Z,9.40
2019-01-05T15:06:00.912Z,8.45
2019-01-05T15:07:29.703Z,11.18
2019-01-05T15:08:54.052Z,7.00
2019-01-05T15:10:22.725Z,9.97
2019-01-05T15:11:48.280Z,8.23
2019-01-05T15:13:14.890Z,6.78
2019-01-05T15:14:39.736Z,6.90
2019-01-05T15:16:19.499Z,22.60
2019-01-05T15:17:58.787Z,12.33
2019-01-05T15:19:23.593Z,9.20
2019-01-05T15:20:48.045Z,11.80
2019-01-05T15:22:19.936Z,13.37
2019-01-05T15:23:48.183Z,8.53
2019-01-05T15:25:13.696Z,9.10
2019-01-05T15:26:37.357Z,3.83
2019-01-05T15:28:11.577Z,9.07
2019-01-05T15:29:37.085Z,6.37
2019-01-05T15:31:08.474Z,9.07
2019-01-05T15:32:33.850Z,7.37
2019-01-05T15:33:59.092Z,6.30
2019-01-05T15:35:23.325Z,5.97
2019-01-05T15:36:48.170Z,6.63
2019-01-05T15:38:12.313Z,10.40
2019-01-05T15:39:46.958Z,6.20
2019-01-05T15:41:12.964Z,6.40
2019-01-05T15:42:41.482Z,12.90
2019-01-05T15:44:06.187Z,12.10
2019-01-05T15:45:28.184Z,10.13
2019-01-05T15:47:06.477Z,9.50
2019-01-05T15:48:47.308Z,8.13
2019-01-05T15:50:13.478Z,8.77
2019-01-05T15:51:51.587Z,11.23
2019-01-05T15:53:09.288Z,10.20
2019-01-05T15:54:27.347Z,10.77
2019-01-05T15:55:55.815Z,10.97
2019-01-05T15:57:20.386Z,11.93
2019-01-05T15:58:45.219Z,11.60
2019-01-05T16:00:11.078Z,12.33
2019-01-05T16:01:55.500Z,13.70
2019-01-05T16:03:21.077Z,8.93
2019-01-05T16:04:46.517Z,8.90
2019-01-05T16:06:10.962Z,14.13
2019-01-05T16:07:35.366Z,13.97
2019-01-05T16:09:13.904Z,16.57
2019-01-05T16:10:43.498Z,13.93
2019-01-05T16:12:08.348Z,10.40
2019-01-05T16:13:32.935Z,11.63
2019-01-05T16:14:58.521Z,15.60
2019-01-05T16:16:22.709Z,10.90
2019-01-05T16:17:48.597Z,13.97
2019-01-05T16:19:13.031Z,22.77
2019-01-05T16:20:41.526Z,18.90
2019-01-05T16:22:05.934Z,11.00
2019-01-05T16:23:41.001Z,10.23
2019-01-05T16:25:05.196Z,13.72
2019-01-05T16:26:30.913Z,11.87
2019-01-05T16:28:02.316Z,13.20
2019-01-05T16:29:34.268Z,15.60
2019-01-05T16:30:58.787Z,13.47
2019-01-05T16:32:24.338Z,16.00
2019-01-05T16:33:48.632Z,9.37
2019-01-05T16:35:25.864Z,12.83
2019-01-05T16:36:50.065Z,17.07
2019-01-05T16:38:15.743Z,14.43
2019-01-05T16:39:41.864Z,11.93
2019-01-05T16:41:19.973Z,10.87
2019-01-05T16:42:45.834Z,7.80
2019-01-05T16:44:23.998Z,10.73
2019-01-05T16:45:48.455Z,15.30
2019-01-05T16:47:14.024Z,8.27
2019-01-05T16:48:38.372Z,10.40
2019-01-05T16:50:03.113Z,18.63
2019-01-05T16:51:41.471Z,10.08
2019-01-05T16:53:06.290Z,9.93
2019-01-05T16:54:34.618Z,14.40
2019-01-05T16:56:19.070Z,7.67
2019-01-05T16:58:01.655Z,8.90
2019-01-05T16:59:27.464Z,6.93
2019-01-05T17:01:04.928Z,7.53
2019-01-05T17:02:29.193Z,12.15
2019-01-05T17:03:53.636Z,8.93
2019-01-05T17:05:18.316Z,8.70
2019-01-05T17:06:43.149Z,10.43
2019-01-05T17:08:23.964Z,16.27
2019-01-05T17:09:48.703Z,11.50
2019-01-05T17:11:14.209Z,13.10
2019-01-05T17:12:38.959Z,9.97
2019-01-05T17:14:19.842Z,13.30
2019-01-05T17:15:45.579Z,10.97
2019-01-05T17:17:11.630Z,14.33
2019-01-05T17:18:32.734Z,13.80
2019-01-05T17:20:10.778Z,9.50
2019-01-05T17:21:39.290Z,17.83
2019-01-05T17:23:10.816Z,11.60
2019-01-05T17:24:42.979Z,10.73
2019-01-05T17:26:07.748Z,13.30
2019-01-05T17:27:27.505Z,9.87
2019-01-05T17:28:52.604Z,8.20
2019-01-05T17:30:27.221Z,13.30
2019-01-05T17:31:48.923Z,10.03
2019-01-05T17:33:26.598Z,8.13
2019-01-05T17:35:04.447Z,12.50
2019-01-05T17:36:48.186Z,6.63
2019-01-05T17:38:14.406Z,8.23
2019-01-05T17:39:52.401Z,8.40
2019-01-05T17:41:18.588Z,7.10
2019-01-05T17:42:43.498Z,15.03
2019-01-05T17:44:14.143Z,9.37
2019-01-05T17:45:44.423Z,11.17
2019-01-05T17:47:05.618Z,5.30
2019-01-05T17:48:32.808Z,8.90
2019-01-05T17:50:13.903Z,8.73
2019-01-05T17:51:47.311Z,7.87
2019-01-05T17:53:09.618Z,5.80
2019-01-05T17:54:37.910Z,10.67
2019-01-05T17:56:03.410Z,6.07
2019-01-05T17:57:25.854Z,11.70
2019-01-05T17:58:42.522Z,6.77
2019-01-05T18:00:08.083Z,9.73
2019-01-05T18:01:36.354Z,6.47
2019-01-05T18:03:19.962Z,9.90
2019-01-05T18:04:50.941Z,10.23
2019-01-05T18:06:15.225Z,10.33
2019-01-05T18:07:33.773Z,8.50
2019-01-05T18:08:58.357Z,7.57
2019-01-05T18:10:36.763Z,9.43
2019-01-05T18:12:08.544Z,8.20
2019-01-05T18:13:41.971Z,9.50
2019-01-05T18:15:25.868Z,9.37
2019-01-05T18:17:03.655Z,8.40
2019-01-05T18:18:27.544Z,9.80
2019-01-05T18:20:02.170Z,8.20
2019-01-05T18:21:28.123Z,8.77
2019-01-05T18:22:54.018Z,9.23
2019-01-05T18:24:22.652Z,11.23
2019-01-05T18:25:48.142Z,8.30
2019-01-05T18:27:14.140Z,10.93
2019-01-05T18:28:57.986Z,9.97
2019-01-05T18:30:26.398Z,9.87
2019-01-05T18:31:52.758Z,9.33
2019-01-05T18:33:17.042Z,9.70
2019-01-05T18:34:58.430Z,9.70
2019-01-05T18:36:24.349Z,8.37
2019-01-05T18:37:49.135Z,11.20
2019-01-05T18:39:16.375Z,7.70
2019-01-05T18:40:45.137Z,6.73
2019-01-05T18:42:10.453Z,7.03
2019-01-05T18:43:36.001Z,17.23
2019-01-05T18:45:19.829Z,10.17
2019-01-05T18:47:02.850Z,7.60
2019-01-05T18:48:30.305Z,7.00
2019-01-05T18:49:55.859Z,6.40
2019-01-05T18:51:24.286Z,5.00
2019-01-05T18:53:05.162Z,8.50
2019-01-05T18:54:43.029Z,7.93
2019-01-05T18:56:14.947Z,6.30
2019-01-05T18:57:46.273Z,6.30
2019-01-05T18:59:21.619Z,9.80
2019-01-05T19:00:53.624Z,10.53
2019-01-05T19:02:34.158Z,5.07
2019-01-05T19:03:59.360Z,6.53
2019-01-05T19:05:25.174Z,10.83
2019-01-05T19:06:56.778Z,7.40
2019-01-05T19:08:37.962Z,6.40
2019-01-05T19:10:15.868Z,7.20
2019-01-05T19:11:41.216Z,9.00
2019-01-05T19:13:05.877Z,6.13
2019-01-05T19:14:32.038Z,9.50
2019-01-05T19:16:10.559Z,10.07
2019-01-05T19:17:39.264Z,7.33
2019-01-05T19:19:05.066Z,5.53
2019-01-05T19:20:37.074Z,18.20
2019-01-05T19:22:01.277Z,6.60
2019-01-05T19:23:20.416Z,10.83
2019-01-05T19:24:44.978Z,8.60
2019-01-05T19:26:06.310Z,12.20
2019-01-05T19:27:43.943Z,6.83
2019-01-05T19:29:09.780Z,7.13
2019-01-05T19:30:34.467Z,3.43
2019-01-05T19:31:53.861Z,8.30
2019-01-05T19:33:28.310Z,7.70
2019-01-05T19:35:03.092Z,6.33
2019-01-05T19:36:27.654Z,8.33
2019-01-05T19:37:56.267Z,7.80
2019-01-05T19:39:21.791Z,8.23
2019-01-05T19:40:53.496Z,6.30
2019-01-05T19:42:19.255Z,12.90
2019-01-05T19:43:43.703Z,8.50
2019-01-05T19:45:08.960Z,6.20
2019-01-05T19:46:33.366Z,8.87
2019-01-05T19:47:57.668Z,8.73
2019-01-05T19:49:38.588Z,10.00
2019-01-05T19:51:16.189Z,9.07
2019-01-05T19:52:45.185Z,6.00
2019-01-05T19:54:09.468Z,7.40
2019-01-05T19:55:34.243Z,11.33
2019-01-05T19:57:02.908Z,6.20
2019-01-05T19:58:27.505Z,5.13
2019-01-05T19:59:58.480Z,8.03
2019-01-05T20:01:23.196Z,12.53
2019-01-05T20:02:46.000Z,8.30
2019-01-05T20:04:10.575Z,6.10
2019-01-05T20:05:35.244Z,7.83
2019-01-05T20:07:07.004Z,6.60
2019-01-05T20:08:31.492Z,5.77
2019-01-05T20:09:57.187Z,7.13
2019-01-05T20:11:42.148Z,10.70
2019-01-05T20:13:07.795Z,11.63
2019-01-05T20:14:32.818Z,6.00
2019-01-05T20:16:09.151Z,8.37
2019-01-05T20:17:35.666Z,8.43
2019-01-05T20:19:11.829Z,7.00
2019-01-05T20:20:40.273Z,8.33
2019-01-05T20:22:39.976Z,10.17
2019-01-05T20:23:51.301Z,10.30
2019-01-05T20:25:36.181Z,15.20
2019-01-05T20:27:04.560Z,10.13
2019-01-05T20:28:38.393Z,3.50
2019-01-05T20:30:13.881Z,4.30
2019-01-05T20:31:44.994Z,8.10
2019-01-05T20:33:10.510Z,8.30
2019-01-05T20:34:36.482Z,10.07
2019-01-05T20:36:06.026Z,9.17
2019-01-05T20:37:32.334Z,8.90
2019-01-05T20:38:57.009Z,7.53
2019-01-05T20:40:17.997Z,12.70
2019-01-05T20:41:43.080Z,5.13
2019-01-05T20:43:20.932Z,10.37
2019-01-05T20:44:55.495Z,10.13
2019-01-05T20:46:20.990Z,8.50
2019-01-05T20:47:56.732Z,5.80
2019-01-05T20:49:21.329Z,3.77
2019-01-05T20:50:47.994Z,6.67
2019-01-05T20:52:13.683Z,8.97
2019-01-05T20:53:49.823Z,14.53
2019-01-05T20:55:21.695Z,7.10
2019-01-05T20:56:46.577Z,9.23
2019-01-05T20:58:11.301Z,14.03
2019-01-05T20:59:42.660Z,8.10
2019-01-05T21:01:20.303Z,8.20
2019-01-05T21:02:51.579Z,9.00
2019-01-05T21:04:20.352Z,8.27
2019-01-05T21:05:44.817Z,8.80
2019-01-05T21:07:09.344Z,8.73
2019-01-05T21:08:40.850Z,7.80
2019-01-05T21:10:15.693Z,9.40
2019-01-05T21:11:39.993Z,7.23
2019-01-05T21:13:15.093Z,11.03
2019-01-05T21:14:39.489Z,6.50
2019-01-05T21:16:05.427Z,10.53
2019-01-05T21:17:29.493Z,13.27
2019-01-05T21:19:13.500Z,9.23
2019-01-05T21:20:42.140Z,9.43
2019-01-05T21:22:13.819Z,10.17
2019-01-05T21:23:37.996Z,7.28
2019-01-05T21:25:06.842Z,8.73
2019-01-05T21:26:32.045Z,14.53
2019-01-05T21:27:57.894Z,10.33
2019-01-05T21:29:22.565Z,5.57
2019-01-05T21:30:57.142Z,11.70
2019-01-05T21:32:21.766Z,8.57
2019-01-05T21:33:47.354Z,11.87
2019-01-05T21:35:09.207Z,11.50
2019-01-05T21:36:38.109Z,8.90
2019-01-05T21:38:07.099Z,11.23
2019-01-05T21:39:42.002Z,12.50
2019-01-05T21:41:06.731Z,11.17
2019-01-05T21:42:31.228Z,6.33
2019-01-05T21:44:12.315Z,8.00
2019-01-05T21:45:38.219Z,12.10
2019-01-05T21:47:03.114Z,11.93
2019-01-05T21:48:34.902Z,12.07
2019-01-05T21:50:03.612Z,13.83
2019-01-05T21:51:47.275Z,10.13
2019-01-05T21:53:11.778Z,5.90
2019-01-05T21:54:45.920Z,12.83
2019-01-05T21:56:17.827Z,13.50
2019-01-05T21:57:45.750Z,12.93
2019-01-05T21:59:17.218Z,8.07
2019-01-05T22:00:42.762Z,13.43
2019-01-05T22:02:08.817Z,8.30
2019-01-05T22:03:33.319Z,8.50
2019-01-05T22:05:02.023Z,12.50
2019-01-05T22:06:26.179Z,6.93
2019-01-05T22:07:51.019Z,6.67
2019-01-05T22:09:15.115Z,10.40
2019-01-05T22:10:38.436Z,11.23
2019-01-05T22:12:04.186Z,15.73
2019-01-05T22:13:30.102Z,8.10
2019-01-05T22:14:50.200Z,11.30
2019-01-05T22:16:21.835Z,5.70
2019-01-05T22:18:05.794Z,12.50
2019-01-05T22:19:41.092Z,10.60
2019-01-05T22:21:15.466Z,11.53
2019-01-05T22:22:47.805Z,9.63
2019-01-05T22:24:12.641Z,8.03
2019-01-05T22:25:41.298Z,7.97
2019-01-05T22:27:05.521Z,7.67
2019-01-05T22:28:30.570Z,15.10
2019-01-05T22:30:05.029Z,8.00
2019-01-05T22:31:31.117Z,12.07
2019-01-05T22:32:56.075Z,10.90
2019-01-05T22:34:20.872Z,7.73
2019-01-05T22:35:49.426Z,6.90
2019-01-05T22:37:17.601Z,11.30
2019-01-05T22:38:49.123Z,7.13
2019-01-05T22:40:13.834Z,7.93
2019-01-05T22:41:38.375Z,6.97
2019-01-05T22:43:04.019Z,8.80
2019-01-05T22:44:32.996Z,10.60
2019-01-05T22:46:01.767Z,8.43
2019-01-05T22:47:26.385Z,15.33
2019-01-05T22:49:04.901Z,17.50
2019-01-05T22:50:35.911Z,11.30
2019-01-05T22:52:00.500Z,11.60
2019-01-05T22:53:47.096Z,18.40
2019-01-05T22:55:27.858Z,6.40
2019-01-05T22:57:02.444Z,12.20
2019-01-05T22:58:27.094Z,11.60
2019-01-05T22:59:53.078Z,12.03
2019-01-05T23:01:21.447Z,9.67
2019-01-05T23:02:50.061Z,11.37
2019-01-05T23:04:14.483Z,5.90
2019-01-05T23:05:42.835Z,9.13
2019-01-05T23:07:07.288Z,8.63
2019-01-05T23:08:39.507Z,7.57
2019-01-05T23:10:08.937Z,9.00
2019-01-05T23:11:32.886Z,10.20
2019-01-05T23:12:57.470Z,14.33
2019-01-05T23:14:22.479Z,9.53
2019-01-05T23:16:03.277Z,10.23
2019-01-05T23:17:38.030Z,11.63
2019-01-05T23:19:07.003Z,8.87
2019-01-05T23:20:31.739Z,10.73
2019-01-05T23:21:58.293Z,10.97
2019-01-05T23:23:32.893Z,12.17
2019-01-05T23:25:07.908Z,18.60
2019-01-05T23:26:32.318Z,8.67
2019-01-05T23:28:02.567Z,12.33
2019-01-05T23:29:27.364Z,12.20
2019-01-05T23:30:49.886Z,11.20
2019-01-05T23:32:14.702Z,9.17
2019-01-05T23:33:35.438Z,9.87
2019-01-05T23:35:19.439Z,7.67
2019-01-05T23:36:54.053Z,10.77
2019-01-05T23:38:35.016Z,8.37
2019-01-05T23:39:58.909Z,11.50
2019-01-05T23:41:20.554Z,7.93
2019-01-05T23:42:50.156Z,10.17
2019-01-05T23:44:13.122Z,8.13
2019-01-05T23:45:51.012Z,7.80
2019-01-05T23:47:25.254Z,11.20
2019-01-05T23:48:49.728Z,8.87
2019-01-05T23:50:20.958Z,10.50
2019-01-05T23:51:45.451Z,17.53
2019-01-05T23:53:09.882Z,8.50
2019-01-05T23:54:34.191Z,14.40
2019-01-05T23:55:59.716Z,13.77
2019-01-05T23:57:24.014Z,7.10
2019-01-05T23:58:48.752Z,9.77
